| Date | Time | Temp. (oF) | Dew Point (oF) | Rel. Hum. (%) | Press. (in.) | Wind Dir. | Wind Speed (mph) | Hourly Rainfall (in.) |
|
|---|---|---|---|---|---|---|---|---|---|
| 1 | 12/15 | 00:00 | 45 | 43 | 96 | 29.90 | SSW | 5 | 0.00 |
| 2 | 12/14 | 23:00 | 44 | 42 | 95 | 29.91 | SSW | 6 | 0.00 |
| 3 | 12/14 | 22:00 | 44 | 42 | 93 | 29.93 | S | 2 | 0.00 |
| 4 | 12/14 | 21:00 | 44 | 40 | 89 | 29.94 | S | 4 | 0.00 |
| 5 | 12/14 | 20:00 | 44 | 40 | 87 | 29.95 | S | 4 | 0.00 |
| 6 | 12/14 | 19:00 | 44 | 40 | 86 | 29.97 | SSW | 2 | 0.00 |
| 7 | 12/14 | 18:00 | 45 | 40 | 84 | 29.99 | S | 5 | 0.00 |
| 8 | 12/14 | 17:00 | 45 | 39 | 81 | 30.00 | SSW | 6 | 0.00 |
| 9 | 12/14 | 16:00 | 46 | 39 | 78 | 30.02 | S | 6 | 0.00 |
| 10 | 12/14 | 15:00 | 48 | 41 | 78 | 30.01 | SSW | 6 | 0.00 |
| 11 | 12/14 | 14:00 | 48 | 40 | 74 | 30.03 | SSW | 2 | 0.00 |
| 12 | 12/14 | 13:00 | 49 | 39 | 71 | 30.03 | SW | 4 | 0.00 |
| 13 | 12/14 | 12:00 | 46 | 37 | 72 | 30.07 | ESE | 4 | 0.00 |
| 14 | 12/14 | 11:00 | 45 | 38 | 79 | 30.10 | ESE | 4 | 0.00 |
| 15 | 12/14 | 10:00 | 43 | 39 | 88 | 30.11 | ESE | 2 | 0.00 |
| 16 | 12/14 | 09:00 | 40 | 38 | 95 | 30.11 | SSE | 0 | 0.00 |
| 17 | 12/14 | 08:00 | 38 | 36 | 96 | 30.11 | S | 0 | 0.00 |
| 18 | 12/14 | 07:00 | 38 | 36 | 94 | 30.11 | WNW | 0 | 0.00 |
| 19 | 12/14 | 06:00 | 39 | 36 | 90 | 30.11 | NW | 0 | 0.00 |
| 20 | 12/14 | 05:00 | 39 | 36 | 89 | 30.07 | NNW | 5 | 0.00 |
| 21 | 12/14 | 04:00 | 41 | 38 | 89 | 30.03 | N | 4 | 0.00 |
| 22 | 12/14 | 03:00 | 41 | 38 | 89 | 30.04 | N | 4 | 0.00 |
| 23 | 12/14 | 02:00 | 40 | 39 | 99 | 30.04 | NW | 8 | 0.00 |
| 24 | 12/14 | 01:00 | 36 | 36 | 100 | 30.01 | WSW | 2 | 0.00 |